• Join FlightAware (Why Join?)
  • Login
  • US Flag 
Rudolph Flight #1: Arrived! 
04:25PM EST


 

Airport Tracker/Info


-or-


 

Live Flight TrackerFlight Track Log ✈ N747FE ✈ 02-Jul-2013 ✈ KIND - KGSO

Flight Track Log - Related Links

Times and Time Zones

All times are in EDT time to prevent confusion due to time zone crossing. See the N747FE flight status page for this flight to view local times or setup timezone preferences in your user account.

Time Position Orientation Groundspeed Altitude Reporting Facility
EDT Latitude Longitude Course Direction KTS MPH feet Rate Location/Type
01:19PM 39.7167 -86.2667 108° East 113 130 1,200  Level Indianapolis TRACON
01:20PM 39.7000 -86.2000 108° East 117 135 2,600 840 Climbing Indianapolis TRACON
01:22PM 39.6864 -86.1625 115° Southeast 122 140 3,500 720 Climbing Indianapolis Center
01:23PM 39.6825 -86.1222 97° East 118 136 4,300 780 Climbing Indianapolis Center
01:24PM 39.6725 -86.0714 104° East 120 138 5,200 780 Climbing Indianapolis Center
01:25PM 39.6664 -86.0275 100° East 122 140 5,900 660 Climbing Indianapolis Center
01:26PM 39.6586 -85.9828 103° East 125 144 6,600 480 Climbing Indianapolis Center
01:27PM 39.6536 -85.9375 98° East 127 146 7,000 180 Climbing Indianapolis Center
01:28PM 39.6436 -85.8853 104° East 142 163 7,000  Level Indianapolis Center
01:29PM 39.6342 -85.8308 103° East 154 177 7,000  Level Indianapolis Center
01:30PM 39.6111 -85.7719 117° Southeast 155 178 7,000  Level Indianapolis Center
01:31PM 39.5831 -85.7319 132° Southeast 150 173 7,000  Level Indianapolis Center
01:32PM 39.5564 -85.6844 126° Southeast 159 183 7,000  Level Indianapolis Center
01:33PM 39.5317 -85.6389 125° Southeast 158 182 7,000  Level Indianapolis Center
01:34PM 39.5075 -85.5942 125° Southeast 154 177 7,000  Level Indianapolis Center
01:35PM 39.4836 -85.5489 124° Southeast 153 176 7,000  Level Indianapolis Center
01:36PM 39.4578 -85.5019 125° Southeast 159 183 7,000  Level Indianapolis Center
01:37PM 39.4286 -85.4467 124° Southeast 156 180 7,000  Level Indianapolis Center
01:38PM 39.4036 -85.4017 126° Southeast 157 181 7,000  Level Indianapolis Center
01:39PM 39.3792 -85.3575 126° Southeast 153 176 7,000  Level Indianapolis Center
01:40PM 39.3539 -85.3106 125° Southeast 158 182 7,000  Level Indianapolis Center
01:41PM 39.3219 -85.2722 137° Southeast 157 181 7,000  Level Indianapolis Center
01:42PM 39.2897 -85.2364 139° Southeast 155 178 7,000  Level Indianapolis Center
01:43PM 39.2589 -85.2011 138° Southeast 149 171 7,000  Level Indianapolis Center
01:44PM 39.2217 -85.1578 138° Southeast 150 173 7,000  Level Indianapolis Center
01:45PM 39.1906 -85.1228 139° Southeast 150 173 7,000  Level Indianapolis Center
01:46PM 39.1597 -85.0875 138° Southeast 148 170 7,000  Level Indianapolis Center
01:47PM 39.1289 -85.0519 138° Southeast 149 171 7,000  Level Indianapolis Center
01:48PM 39.0958 -85.0167 140° Southeast 152 175 7,000  Level Indianapolis Center
01:49PM 39.0656 -84.9814 138° Southeast 149 171 7,000  Level Indianapolis Center
01:50PM 39.0339 -84.9475 140° Southeast 149 171 7,000  Level Indianapolis Center
01:51PM 38.9958 -84.9036 138° Southeast 152 175 7,000  Level Indianapolis Center
01:53PM 38.9653 -84.8683 138° Southeast 148 170 7,000  Level Indianapolis Center
01:53PM 38.9500 -84.8333 119° Southeast 149 171 7,000  Level Cincinnati TRACON
01:54PM 38.9167 -84.8167 159° South 151 174 7,000  Level Cincinnati TRACON
01:55PM 38.8833 -84.7667 131° Southeast 151 174 7,000  Level Cincinnati TRACON
01:56PM 38.8694 -84.7642 172° South 152 175 7,000  Level Indianapolis Center
01:57PM 38.8386 -84.7269 137° Southeast 153 176 7,000  Level Indianapolis Center
01:58PM 38.8078 -84.6900 137° Southeast 152 175 7,000  Level Indianapolis Center
01:59PM 38.7756 -84.6547 140° Southeast 153 176 7,000  Level Indianapolis Center
02:00PM 38.7383 -84.6128 139° Southeast 149 171 7,000  Level Indianapolis Center
02:01PM 38.7056 -84.5756 138° Southeast 150 173 7,000  Level Indianapolis Center
02:02PM 38.6742 -84.5397 138° Southeast 151 174 7,000  Level Indianapolis Center
02:03PM 38.6417 -84.5061 141° Southeast 150 173 7,000  Level Indianapolis Center
02:04PM 38.6108 -84.4686 136° Southeast 152 175 7,100  Climbing Indianapolis Center
02:05PM 38.5781 -84.4361 142° Southeast 150 173 7,000 -300 Descending Indianapolis Center
02:06PM 38.5475 -84.3983 136° Southeast 152 175 6,500  Descending Indianapolis Center
02:07PM 38.5139 -84.3636 141° Southeast 154 177 7,000 240 Climbing Indianapolis Center
02:08PM 38.4800 -84.3228 137° Southeast 146 168 7,100  Climbing Indianapolis Center
02:09PM 38.4486 -84.2878 139° Southeast 148 170 7,000 -60 Descending Indianapolis Center
02:10PM 38.4169 -84.2544 140° Southeast 148 170 7,000  Level Indianapolis Center
02:11PM 38.3856 -84.2186 138° Southeast 150 173 7,100  Climbing Indianapolis Center
02:12PM 38.3533 -84.1836 140° Southeast 152 175 7,000 -60 Descending Indianapolis Center
02:13PM 38.3211 -84.1461 138° Southeast 155 178 7,000  Level Indianapolis Center
02:14PM 38.2889 -84.1125 141° Southeast 152 175 7,100  Climbing Indianapolis Center
02:15PM 38.2567 -84.0778 140° Southeast 151 174 7,100 -60 Level Indianapolis Center
02:16PM 38.2208 -84.0347 137° Southeast 150 173 7,000  Descending Indianapolis Center
02:17PM 38.1894 -83.9997 139° Southeast 150 173 7,100  Climbing Indianapolis Center
02:18PM 38.1569 -83.9644 140° Southeast 152 175 7,100 -60 Level Indianapolis Center
02:19PM 38.1247 -83.9297 140° Southeast 152 175 7,000  Descending Indianapolis Center
02:20PM 38.0933 -83.8939 138° Southeast 151 174 7,100  Climbing Indianapolis Center
02:21PM 38.0619 -83.8594 139° Southeast 150 173 7,000 -60 Descending Indianapolis Center
02:22PM 38.0300 -83.8250 140° Southeast 150 173 7,000  Level Indianapolis Center
02:23PM 37.9978 -83.7889 139° Southeast 151 174 7,000  Level Indianapolis Center
02:24PM 37.9564 -83.7558 148° Southeast 151 174 7,000 -60 Level Indianapolis Center
02:25PM 37.9275 -83.7158 132° Southeast 150 173 6,900 -60 Descending Indianapolis Center
02:26PM 37.8986 -83.6744 131° Southeast 154 177 6,900  Level Indianapolis Center
02:27PM 37.8656 -83.6381 139° Southeast 156 180 6,900  Level Indianapolis Center
02:28PM 37.8322 -83.6044 141° Southeast 155 178 6,900  Level Indianapolis Center
02:29PM 37.8008 -83.5717 140° Southeast 150 173 6,900  Level Indianapolis Center
02:30PM 37.7681 -83.5369 140° Southeast 151 174 6,900  Level Indianapolis Center
02:31PM 37.7311 -83.4967 139° Southeast 151 174 6,900  Level Indianapolis Center
02:32PM 37.6989 -83.4617 139° Southeast 151 174 6,900  Level Indianapolis Center
02:34PM 37.6722 -83.4200 129° Southeast 151 174 6,900  Level Indianapolis Center
02:35PM 37.6514 -83.3661 116° Southeast 159 183 7,000  Climbing Indianapolis Center
02:36PM 37.6294 -83.3144 118° Southeast 165 190 6,900 -60 Descending Indianapolis Center
02:37PM 37.6050 -83.2681 124° Southeast 162 186 6,900  Level Indianapolis Center
02:38PM 37.5772 -83.2269 130° Southeast 157 181 6,900  Level Indianapolis Center
02:39PM 37.5486 -83.1906 135° Southeast 152 175 6,900  Level Indianapolis Center
02:40PM 37.5269 -83.1297 114° Southeast 159 183 7,000  Climbing Indianapolis Center
02:41PM 37.5050 -83.0808 119° Southeast 161 185 6,900 -60 Descending Indianapolis Center
02:42PM 37.4828 -83.0308 119° Southeast 162 186 6,900  Level Indianapolis Center
02:43PM 37.4608 -82.9819 119° Southeast 161 185 6,900  Level Indianapolis Center
02:44PM 37.4383 -82.9317 119° Southeast 163 188 6,900  Level Indianapolis Center
02:45PM 37.4178 -82.8814 117° Southeast 162 186 6,900  Level Indianapolis Center
02:46PM 37.3972 -82.8314 117° Southeast 161 185 6,900  Level Indianapolis Center
02:47PM 37.3761 -82.7808 118° Southeast 163 188 6,900  Level Indianapolis Center
02:48PM 37.3503 -82.7253 120° Southeast 158 182 6,900  Level Indianapolis Center
02:49PM 37.3286 -82.6767 119° Southeast 158 182 6,900  Level Indianapolis Center
02:50PM 37.3067 -82.6272 119° Southeast 160 184 6,900  Level Indianapolis Center
02:51PM 37.2856 -82.5772 118° Southeast 162 186 7,000  Climbing Indianapolis Center
02:52PM 37.2650 -82.5267 117° Southeast 162 186 6,900 -60 Descending Indianapolis Center
02:53PM 37.2442 -82.4758 117° Southeast 163 188 6,900  Level Indianapolis Center
02:54PM 37.2217 -82.4258 119° Southeast 164 189 6,900  Level Indianapolis Center
02:55PM 37.1950 -82.3672 120° Southeast 165 190 6,900  Level Indianapolis Center
02:56PM 37.1750 -82.3178 117° Southeast 161 185 6,900  Level Indianapolis Center
02:57PM 37.1533 -82.2667 118° Southeast 163 188 6,900  Level Indianapolis Center
02:58PM 37.1303 -82.2169 120° Southeast 165 190 6,900  Level Indianapolis Center
02:59PM 37.1089 -82.1669 118° Southeast 163 188 7,000  Climbing Indianapolis Center
03:00PM 37.0867 -82.1172 119° Southeast 163 188 7,000  Level Indianapolis Center
03:01PM 37.0644 -82.0694 120° Southeast 161 185 7,000  Level Indianapolis Center
03:02PM 37.0406 -82.0114 117° Southeast 161 185 7,000  Level Indianapolis Center
03:03PM 37.0206 -81.9650 118° Southeast 157 181 7,000 -60 Level Indianapolis Center
03:04PM 36.9981 -81.9183 121° Southeast 154 177 6,900 -60 Descending Indianapolis Center
03:05PM 36.9750 -81.8683 120° Southeast 162 186 6,900  Level Indianapolis Center
03:06PM 36.9536 -81.8189 118° Southeast 162 186 6,900  Level Indianapolis Center
03:07PM 36.9322 -81.7703 119° Southeast 160 184 6,900  Level Indianapolis Center
03:08PM 36.9103 -81.7228 120° Southeast 158 182 6,900  Level Indianapolis Center
03:09PM 36.8842 -81.6664 120° Southeast 160 184 6,900  Level Indianapolis Center
03:11PM 36.8644 -81.6181 117° Southeast 158 182 6,900  Level Indianapolis Center
03:12PM 36.8433 -81.5692 118° Southeast 158 182 7,000 420 Climbing Indianapolis Center
03:13PM 36.8122 -81.5083 123° Southeast 174 200 7,900 420 Climbing Atlanta Center
03:14PM 36.7967 -81.4697 117° Southeast 148 170 8,000  Climbing Atlanta Center
03:15PM 36.7747 -81.4214 120° Southeast 148 170 8,000  Level Atlanta Center
03:16PM 36.7508 -81.3678 119° Southeast 154 177 8,000 -60 Level Atlanta Center
03:17PM 36.7286 -81.3139 117° Southeast 161 185 7,900 -60 Descending Atlanta Center
03:18PM 36.7067 -81.2631 118° Southeast 161 185 7,900  Level Atlanta Center
03:19PM 36.6850 -81.2197 122° Southeast 161 185 8,000 60 Climbing Atlanta Center
03:20PM 36.6628 -81.1689 119° Southeast 161 185 8,100  Climbing Atlanta Center
03:21PM 36.6408 -81.1203 119° Southeast 166 191 8,000 -60 Descending Atlanta Center
03:22PM 36.6211 -81.0744 118° Southeast 161 185 8,000  Level Atlanta Center
03:23PM 36.5992 -81.0289 121° Southeast 161 185 8,000  Level Atlanta Center
03:24PM 36.5769 -80.9831 121° Southeast 166 191 8,100 -240 Climbing Atlanta Center
03:25PM 36.5528 -80.9325 121° Southeast 166 191 7,600 -540 Descending Atlanta Center
03:26PM 36.5308 -80.8842 119° Southeast 166 191 7,100 -300 Descending Atlanta Center
03:27PM 36.5106 -80.8308 115° Southeast 161 185 7,100  Level Atlanta Center
03:28PM 36.4908 -80.7875 120° Southeast 154 177 7,100  Level Atlanta Center
03:29PM 36.4686 -80.7419 121° Southeast 154 177 7,100  Level Atlanta Center
03:30PM 36.4486 -80.6964 119° Southeast 154 177 7,100 -60 Level Atlanta Center
03:31PM 36.4264 -80.6483 120° Southeast 154 177 7,000  Descending Atlanta Center
03:32PM 36.4064 -80.6053 120° Southeast 154 177 7,100  Climbing Atlanta Center
03:33PM 36.3864 -80.5572 117° Southeast 154 177 7,000 -60 Descending Atlanta Center
03:34PM 36.3619 -80.5067 121° Southeast 154 177 7,000  Level Atlanta Center
03:35PM 36.3419 -80.4611 119° Southeast 154 177 7,100  Climbing Atlanta Center
03:36PM 36.3219 -80.4208 122° Southeast 154 177 7,100  Level Atlanta Center
03:38PM 36.2639 -80.3634 141° Southeast  Level FlightAware Approximate
03:45PM 36.0844 -80.0610 116° Southeast  Level FlightAware Approximate
03:46PM 36.0648 -80.0139 129° Southeast  Level FlightAware Approximate
03:47PM 36.0376 -79.9731 129° Southeast  Level FlightAware Approximate
03:48PM 36.0668 -79.9499 22° Northeast  Level FlightAware Approximate
03:49PM 36.1000 -79.9333 22° Northeast  Level FlightAware Approximate
03:50PM 36.1013 -79.9411 22° Northeast  Level Estimated
03:51PM 36.1000 -79.9333 22° Northeast  Level FlightAware Approximate
03:52PM 36.1013 -79.9411 22° Northeast  Level Estimated
03:53PM 36.1000 -79.9333 22° Northeast  Level FlightAware Approximate
03:54PM 36.1013 -79.9411 22° Northeast  Level Estimated
03:55PM 36.1000 -79.9333 22° Northeast  Level FlightAware Approximate
03:56PM 36.1013 -79.9411 22° Northeast  Level Estimated
03:57PM 36.1000 -79.9333 22° Northeast  Level FlightAware Approximate
03:58PM 36.1013 -79.9411 22° Northeast  Level Estimated
03:59PM 36.1000 -79.9333 22° Northeast  Level FlightAware Approximate